Time,TemperatureF,DewpointF,PressureIn,WindDirection,WindDirectionDegrees,WindSpeedMPH,WindSpeedGustMPH,Humidity,HourlyPrecipIn,Conditions,Clouds,dailyrainin,SolarRadiationWatts/m^2,SoftwareType,DateUTC
2013-10-03 00:00:00,44.0,13.0,-100.00,North,6,1.0,6.0,29,-99.99,,,0.00,0.000000,,2013-10-03 06:00:00,
2013-10-03 00:52:00,44.0,13.0,-100.00,North,6,1.0,6.0,29,-99.99,,,0.00,0.000000,,2013-10-03 06:52:00,
2013-10-03 03:43:00,42.0,-99.9,-100.00,North,-999,-999.0,-999.0,-999,-99.99,,,0.00,,,2013-10-03 09:43:00,
2013-10-03 05:00:00,46.0,20.0,-100.00,North,8,2.0,9.0,36,-99.99,,,0.00,0.000000,,2013-10-03 11:00:00,
2013-10-03 05:52:00,46.0,20.0,-100.00,North,8,2.0,9.0,36,-99.99,,,0.00,0.000000,,2013-10-03 11:52:00,
2013-10-03 08:00:00,45.0,27.0,-100.00,North,7,3.0,6.0,50,-99.99,,,0.00,14.000000,,2013-10-03 14:00:00,
2013-10-03 08:52:00,45.0,27.0,-100.00,North,7,3.0,6.0,50,-99.99,,,0.00,14.000000,,2013-10-03 14:52:00,
2013-10-03 09:00:00,48.0,31.0,-100.00,North,7,2.0,9.0,52,-99.99,,,0.00,154.800003,,2013-10-03 15:00:00,
2013-10-03 09:54:00,48.0,31.0,-100.00,North,7,2.0,9.0,52,-99.99,,,0.00,154.800003,,2013-10-03 15:54:00,
2013-10-03 12:00:00,55.0,13.0,-100.00,North,8,3.0,8.0,18,-99.99,,,0.00,492.100006,,2013-10-03 18:00:00,
2013-10-03 12:52:00,55.0,13.0,-100.00,North,8,3.0,8.0,18,-99.99,,,0.00,492.100006,,2013-10-03 18:52:00,
2013-10-03 13:00:00,58.0,15.0,-100.00,North,9,2.0,7.0,18,-99.99,,,0.00,522.299988,,2013-10-03 19:00:00,
2013-10-03 13:52:00,58.0,15.0,-100.00,North,9,2.0,7.0,18,-99.99,,,0.00,522.299988,,2013-10-03 19:52:00,
2013-10-03 14:00:00,56.0,15.0,-100.00,North,8,2.0,7.0,20,-99.99,,,0.00,213.100006,,2013-10-03 20:00:00,
2013-10-03 14:52:00,56.0,15.0,-100.00,North,8,2.0,7.0,20,-99.99,,,0.00,213.100006,,2013-10-03 20:52:00,
2013-10-03 15:00:00,55.0,17.0,-100.00,North,8,3.0,8.0,22,-99.99,,,0.00,123.000000,,2013-10-03 21:00:00,
2013-10-03 15:54:00,55.0,17.0,-100.00,North,8,3.0,8.0,22,-99.99,,,0.00,123.000000,,2013-10-03 21:54:00,
2013-10-03 18:00:00,51.0,18.0,-100.00,North,8,2.0,7.0,27,-99.99,,,0.00,7.900000,,2013-10-04 00:00:00,
2013-10-03 18:52:00,51.0,18.0,-100.00,North,8,2.0,7.0,27,-99.99,,,0.00,7.900000,,2013-10-04 00:52:00,
2013-10-03 19:00:00,49.0,21.0,-100.00,North,8,2.0,6.0,32,-99.99,,,0.00,2.800000,,2013-10-04 01:00:00,
2013-10-03 19:52:00,49.0,21.0,-100.00,North,8,2.0,6.0,32,-99.99,,,0.00,2.800000,,2013-10-04 01:52:00,
2013-10-03 22:00:00,47.0,21.0,-100.00,North,8,1.0,4.0,35,-99.99,,,0.00,0.000000,,2013-10-04 04:00:00,